createdAt,value
2022-11-14T00:00:51.745Z,10.20
2022-11-14T00:03:37.300Z,10.20
2022-11-14T00:06:23.409Z,10.20
2022-11-14T00:09:09.360Z,10.20
2022-11-14T00:11:55.935Z,10.10
2022-11-14T00:14:41.943Z,10.20
2022-11-14T00:17:27.576Z,10.20
2022-11-14T00:20:13.961Z,10.20
2022-11-14T00:22:59.716Z,10.20
2022-11-14T00:25:45.962Z,10.20
2022-11-14T00:28:32.489Z,10.20
2022-11-14T00:31:18.460Z,10.30
2022-11-14T00:34:04.507Z,10.20
2022-11-14T00:36:50.160Z,10.20
2022-11-14T00:39:36.084Z,10.20
2022-11-14T00:42:22.184Z,10.30
2022-11-14T00:45:08.550Z,10.20
2022-11-14T00:47:54.276Z,10.20
2022-11-14T00:50:40.652Z,10.20
2022-11-14T00:53:26.345Z,10.30
2022-11-14T00:56:12.170Z,10.30
2022-11-14T00:58:58.298Z,10.30
2022-11-14T01:01:44.220Z,10.30
2022-11-14T01:04:30.404Z,10.30
2022-11-14T01:07:16.589Z,10.30
2022-11-14T01:10:02.514Z,10.30
2022-11-14T01:12:48.642Z,10.30
2022-11-14T01:15:38.369Z,10.30
2022-11-14T01:18:24.039Z,10.30
2022-11-14T01:21:12.305Z,10.40
2022-11-14T01:23:58.346Z,10.40
2022-11-14T01:26:43.956Z,10.40
2022-11-14T01:29:30.246Z,10.40
2022-11-14T01:32:16.284Z,10.40
2022-11-14T01:35:02.014Z,10.40
2022-11-14T01:37:48.035Z,10.50
2022-11-14T01:40:34.272Z,10.50
2022-11-14T01:43:19.824Z,10.50
2022-11-14T01:46:07.338Z,10.50
2022-11-14T01:48:55.875Z,10.50
2022-11-14T01:51:49.948Z,10.50
2022-11-14T01:54:41.411Z,10.50
2022-11-14T01:57:31.777Z,10.50
2022-11-14T02:00:17.552Z,10.50
2022-11-14T02:03:04.030Z,10.60
2022-11-14T02:05:51.899Z,10.60
2022-11-14T02:08:38.088Z,10.60
2022-11-14T02:11:24.177Z,10.60
2022-11-14T02:14:10.691Z,10.60
2022-11-14T02:17:22.642Z,10.60
2022-11-14T02:20:12.159Z,10.70
2022-11-14T02:22:58.200Z,10.60
2022-11-14T02:25:43.835Z,10.60
2022-11-14T02:28:30.049Z,10.60
2022-11-14T02:31:16.658Z,10.60
2022-11-14T02:34:02.449Z,10.70
2022-11-14T02:36:48.284Z,10.70
2022-11-14T02:39:34.203Z,10.70
2022-11-14T02:42:20.094Z,10.70
2022-11-14T02:45:06.520Z,10.70
2022-11-14T02:47:52.480Z,10.70
2022-11-14T02:50:38.688Z,10.70
2022-11-14T02:53:24.292Z,10.70
2022-11-14T02:56:10.265Z,10.70
2022-11-14T02:58:56.267Z,10.70
2022-11-14T03:01:42.319Z,10.70
2022-11-14T03:04:28.243Z,10.70
2022-11-14T03:07:14.210Z,10.70
2022-11-14T03:09:59.983Z,10.70
2022-11-14T03:12:46.179Z,10.70
2022-11-14T03:15:32.143Z,10.70
2022-11-14T03:18:18.223Z,10.70
2022-11-14T03:21:08.875Z,10.70
2022-11-14T03:23:54.589Z,10.60
2022-11-14T03:26:40.555Z,10.60
2022-11-14T03:29:26.655Z,10.70
2022-11-14T03:32:12.468Z,10.70
2022-11-14T03:34:58.908Z,10.70
2022-11-14T03:37:44.933Z,10.70
2022-11-14T03:40:30.522Z,10.70
2022-11-14T03:43:17.480Z,10.70
2022-11-14T03:46:04.162Z,10.80
2022-11-14T03:48:50.145Z,10.80
2022-11-14T03:51:36.379Z,10.80
2022-11-14T03:54:22.050Z,10.80
2022-11-14T03:57:08.089Z,10.80
2022-11-14T03:59:54.041Z,10.70
2022-11-14T04:02:39.867Z,10.80
2022-11-14T04:05:25.690Z,10.80
2022-11-14T04:08:11.713Z,10.70
2022-11-14T04:10:57.631Z,10.70
2022-11-14T04:13:43.613Z,10.70
2022-11-14T04:16:29.519Z,10.70
2022-11-14T04:19:15.586Z,10.70
2022-11-14T04:22:02.077Z,10.80
2022-11-14T04:24:47.937Z,10.80
2022-11-14T04:27:34.060Z,10.80
2022-11-14T04:30:20.129Z,10.80
2022-11-14T04:33:06.046Z,10.80
2022-11-14T04:35:52.090Z,10.90
2022-11-14T04:38:39.361Z,10.90
2022-11-14T04:41:25.140Z,10.90
2022-11-14T04:44:11.311Z,10.90
2022-11-14T04:46:57.272Z,10.90
2022-11-14T04:49:42.996Z,10.90
2022-11-14T04:52:28.927Z,11.00
2022-11-14T04:55:14.785Z,10.90
2022-11-14T04:58:00.920Z,10.90
2022-11-14T05:00:47.610Z,10.90
2022-11-14T05:03:35.093Z,11.00
2022-11-14T05:06:21.241Z,11.00
2022-11-14T05:09:07.051Z,11.00
2022-11-14T05:11:52.640Z,11.10
2022-11-14T05:14:38.793Z,11.10
2022-11-14T05:17:24.983Z,11.00
2022-11-14T05:20:11.054Z,11.00
2022-11-14T05:22:58.472Z,11.00
2022-11-14T05:25:44.062Z,11.00
2022-11-14T05:28:30.451Z,11.00
2022-11-14T05:31:18.047Z,11.00
2022-11-14T05:34:04.132Z,10.90
2022-11-14T05:36:50.089Z,10.90
2022-11-14T05:39:36.023Z,10.90
2022-11-14T05:42:21.947Z,10.80
2022-11-14T05:45:08.541Z,10.80
2022-11-14T05:47:54.284Z,10.70
2022-11-14T05:50:40.118Z,10.70
2022-11-14T05:53:27.432Z,10.60
2022-11-14T05:56:13.996Z,10.60
2022-11-14T05:58:59.732Z,10.60
2022-11-14T06:01:46.360Z,10.60
2022-11-14T06:04:32.234Z,10.60
2022-11-14T06:07:20.359Z,10.70
2022-11-14T06:10:07.101Z,10.80
2022-11-14T06:12:53.235Z,10.90
2022-11-14T06:15:38.929Z,10.90
2022-11-14T06:18:24.823Z,11.00
2022-11-14T06:21:15.855Z,11.00
2022-11-14T06:24:01.835Z,11.00
2022-11-14T06:26:47.847Z,11.00
2022-11-14T06:29:35.605Z,11.00
2022-11-14T06:32:21.572Z,11.00
2022-11-14T06:35:08.483Z,11.10
2022-11-14T06:37:54.903Z,11.10
2022-11-14T06:40:45.626Z,11.20
2022-11-14T06:43:36.561Z,11.20
2022-11-14T06:46:23.215Z,11.20
2022-11-14T06:49:09.271Z,11.20
2022-11-14T06:51:55.536Z,11.10
2022-11-14T06:54:41.179Z,11.10
2022-11-14T06:57:27.074Z,11.10
2022-11-14T07:00:13.617Z,11.10
2022-11-14T07:02:59.702Z,11.10
2022-11-14T07:05:45.577Z,11.10
2022-11-14T07:08:32.311Z,11.20
2022-11-14T07:11:24.223Z,11.10
2022-11-14T07:14:10.277Z,11.20
2022-11-14T07:16:56.154Z,11.20
2022-11-14T07:19:42.063Z,11.30
2022-11-14T07:22:28.020Z,11.20
2022-11-14T07:25:14.239Z,11.30
2022-11-14T07:27:59.924Z,11.30
2022-11-14T07:30:46.376Z,11.30
2022-11-14T07:33:33.391Z,11.30
2022-11-14T07:36:19.477Z,11.30
2022-11-14T07:39:05.380Z,11.30
2022-11-14T07:41:51.339Z,11.30
2022-11-14T07:44:37.537Z,11.40
2022-11-14T07:47:23.395Z,11.40
2022-11-14T07:50:09.881Z,11.50
2022-11-14T07:52:57.512Z,11.50
2022-11-14T07:55:43.695Z,11.60
2022-11-14T07:58:29.744Z,11.60
2022-11-14T08:01:16.015Z,11.60
2022-11-14T08:04:02.103Z,11.70
2022-11-14T08:06:48.093Z,11.70
2022-11-14T08:09:33.980Z,11.80
2022-11-14T08:12:19.813Z,11.90
2022-11-14T08:15:10.619Z,11.90
2022-11-14T08:18:01.251Z,12.00
2022-11-14T08:20:47.382Z,12.10
2022-11-14T08:23:33.267Z,12.20
2022-11-14T08:26:19.326Z,12.30
2022-11-14T08:29:05.406Z,12.40
2022-11-14T08:31:53.525Z,12.50
2022-11-14T08:34:42.980Z,12.60
2022-11-14T08:37:28.935Z,12.80
2022-11-14T08:40:15.031Z,12.90
2022-11-14T08:43:02.110Z,13.00
2022-11-14T08:45:47.751Z,13.10
2022-11-14T08:48:34.179Z,13.20
2022-11-14T08:51:20.340Z,13.30
2022-11-14T08:54:06.916Z,13.30
2022-11-14T08:56:52.910Z,13.30
2022-11-14T08:59:39.450Z,13.30
2022-11-14T09:02:26.426Z,13.30
2022-11-14T09:05:12.425Z,13.40
2022-11-14T09:07:59.225Z,13.40
2022-11-14T09:10:45.252Z,13.50
2022-11-14T09:13:33.387Z,13.50
2022-11-14T09:16:19.065Z,13.60
2022-11-14T09:19:05.009Z,13.60
2022-11-14T09:21:51.068Z,13.60
2022-11-14T09:24:37.287Z,13.60
2022-11-14T09:27:22.815Z,13.60
2022-11-14T09:30:09.575Z,13.70
2022-11-14T09:33:05.661Z,13.60
2022-11-14T09:35:59.013Z,13.60
2022-11-14T09:38:45.889Z,13.60
2022-11-14T09:42:06.680Z,13.60
2022-11-14T09:45:02.419Z,13.80
2022-11-14T09:48:01.330Z,13.90
2022-11-14T09:51:06.709Z,14.10
2022-11-14T09:54:00.309Z,14.20
2022-11-14T09:56:46.046Z,14.40
2022-11-14T09:59:32.112Z,14.60
2022-11-14T10:02:28.268Z,14.70
2022-11-14T10:05:38.117Z,14.80
2022-11-14T10:09:00.396Z,15.00
2022-11-14T10:12:23.024Z,15.20
2022-11-14T10:15:31.087Z,15.40
2022-11-14T10:18:41.600Z,15.60
2022-11-14T10:21:39.404Z,15.80
2022-11-14T10:25:07.332Z,15.90
2022-11-14T10:28:23.982Z,16.10
2022-11-14T10:31:35.085Z,16.30
2022-11-14T10:34:44.085Z,16.40
2022-11-14T10:37:36.955Z,16.40
2022-11-14T10:40:26.093Z,16.50
2022-11-14T10:43:30.662Z,16.60
2022-11-14T10:46:36.724Z,16.80
2022-11-14T10:49:25.662Z,16.60
2022-11-14T10:52:16.382Z,16.60
2022-11-14T10:55:14.706Z,16.70
2022-11-14T10:58:00.501Z,16.50
2022-11-14T11:00:46.686Z,16.30
2022-11-14T11:03:44.154Z,16.10
2022-11-14T11:06:30.338Z,16.20
2022-11-14T11:09:46.002Z,16.20
2022-11-14T11:12:46.070Z,16.30
2022-11-14T11:15:42.407Z,16.50
2022-11-14T11:18:34.111Z,16.60
2022-11-14T11:21:23.775Z,16.70
2022-11-14T11:24:09.944Z,16.40
2022-11-14T11:27:25.530Z,16.40
2022-11-14T11:30:37.703Z,16.20
2022-11-14T11:33:25.990Z,16.20
2022-11-14T11:36:14.500Z,16.10
2022-11-14T11:39:00.440Z,16.00
2022-11-14T11:44:59.148Z,16.00
2022-11-14T11:48:09.524Z,15.90
2022-11-14T11:50:55.443Z,15.90
2022-11-14T11:53:57.448Z,15.80
2022-11-14T11:56:45.562Z,15.80
2022-11-14T11:59:49.705Z,15.80
2022-11-14T12:02:44.816Z,15.80
2022-11-14T12:05:36.686Z,15.70
2022-11-14T12:08:46.901Z,15.70
2022-11-14T12:11:36.252Z,15.70
2022-11-14T12:14:51.659Z,15.70
2022-11-14T12:18:11.438Z,15.70
2022-11-14T12:21:06.494Z,15.70
2022-11-14T12:24:45.062Z,15.80
2022-11-14T12:27:51.146Z,15.90
2022-11-14T12:30:39.424Z,16.00
2022-11-14T12:33:34.789Z,15.90
2022-11-14T12:36:29.969Z,15.90
2022-11-14T12:39:28.769Z,16.00
2022-11-14T12:42:21.156Z,16.00
2022-11-14T12:45:40.890Z,16.00
2022-11-14T12:48:32.724Z,16.00
2022-11-14T12:51:52.549Z,16.00
2022-11-14T12:54:46.258Z,15.90
2022-11-14T12:58:05.011Z,15.90
2022-11-14T13:00:51.041Z,15.90
2022-11-14T13:03:58.951Z,15.90
2022-11-14T13:06:47.448Z,15.90
2022-11-14T13:09:54.640Z,15.80
2022-11-14T13:13:29.884Z,15.90
2022-11-14T13:16:48.822Z,15.90
2022-11-14T13:19:53.263Z,16.00
2022-11-14T13:22:41.995Z,16.10
2022-11-14T13:25:28.468Z,16.20
2022-11-14T13:28:36.372Z,16.30
2022-11-14T13:31:35.908Z,16.30
2022-11-14T13:34:49.525Z,16.30
2022-11-14T13:38:12.328Z,16.30
2022-11-14T13:41:47.020Z,16.40
2022-11-14T13:44:52.491Z,16.50
2022-11-14T13:48:09.105Z,16.50
2022-11-14T13:51:15.567Z,16.60
2022-11-14T13:54:17.911Z,16.60
2022-11-14T13:57:25.969Z,16.50
2022-11-14T14:00:19.967Z,16.40
2022-11-14T14:03:10.708Z,16.40
2022-11-14T14:06:22.497Z,16.20
2022-11-14T14:09:25.576Z,16.10
2022-11-14T14:12:45.210Z,16.10
2022-11-14T14:15:43.401Z,16.10
2022-11-14T14:18:55.392Z,16.10
2022-11-14T14:22:12.079Z,16.00
2022-11-14T14:25:09.871Z,16.00
2022-11-14T14:28:14.449Z,16.00
2022-11-14T14:31:11.427Z,15.80
2022-11-14T14:33:57.013Z,15.70
2022-11-14T14:36:50.564Z,15.60
2022-11-14T14:39:36.170Z,15.50
2022-11-14T14:42:22.362Z,15.30
2022-11-14T14:45:27.872Z,15.20
2022-11-14T14:48:15.911Z,15.00
2022-11-14T14:51:07.379Z,14.90
2022-11-14T14:53:54.117Z,14.80
2022-11-14T14:56:40.047Z,14.80
2022-11-14T14:59:27.895Z,14.70
2022-11-14T15:02:19.715Z,14.60
2022-11-14T15:05:05.948Z,14.50
2022-11-14T15:07:56.933Z,14.40
2022-11-14T15:10:43.277Z,14.30
2022-11-14T15:13:30.632Z,14.20
2022-11-14T15:16:16.998Z,14.10
2022-11-14T15:19:03.952Z,14.00
2022-11-14T15:22:05.619Z,14.00
2022-11-14T15:25:10.408Z,13.90
2022-11-14T15:27:58.925Z,13.80
2022-11-14T15:31:00.627Z,13.70
2022-11-14T15:34:00.142Z,13.60
2022-11-14T15:37:22.495Z,13.50
2022-11-14T15:40:26.372Z,13.40
2022-11-14T15:43:42.588Z,13.30
2022-11-14T15:46:34.201Z,13.20
2022-11-14T15:49:25.573Z,13.10
2022-11-14T15:52:25.863Z,13.00
2022-11-14T15:55:18.827Z,12.90
2022-11-14T15:58:26.982Z,12.80
2022-11-14T16:01:19.402Z,12.80
2022-11-14T16:04:05.768Z,12.70
2022-11-14T16:06:51.473Z,12.70
2022-11-14T16:09:37.444Z,12.60
2022-11-14T16:12:23.387Z,12.50
2022-11-14T16:15:09.763Z,12.40
2022-11-14T16:17:55.845Z,12.40
2022-11-14T16:20:41.828Z,12.20
2022-11-14T16:23:28.027Z,12.20
2022-11-14T16:26:14.385Z,12.20
2022-11-14T16:29:02.092Z,12.10
2022-11-14T16:31:48.539Z,12.10
2022-11-14T16:34:34.329Z,12.00
2022-11-14T16:37:20.148Z,12.00
2022-11-14T16:40:07.501Z,11.90
2022-11-14T16:42:59.002Z,11.90
2022-11-14T16:45:45.108Z,11.90
2022-11-14T16:48:30.937Z,11.80
2022-11-14T16:51:46.141Z,11.80
2022-11-14T16:54:22.972Z,11.70
2022-11-14T16:57:08.839Z,11.60
2022-11-14T16:59:54.552Z,11.60
2022-11-14T17:02:41.512Z,11.50
2022-11-14T17:05:27.609Z,11.40
2022-11-14T17:08:13.340Z,11.50
2022-11-14T17:10:59.799Z,11.40
2022-11-14T17:13:45.614Z,11.40
2022-11-14T17:16:31.760Z,11.30
2022-11-14T17:19:17.655Z,11.30
2022-11-14T17:22:03.610Z,11.30
2022-11-14T17:24:49.640Z,11.20
2022-11-14T17:27:35.485Z,11.20
2022-11-14T17:30:21.617Z,11.30
2022-11-14T17:33:07.634Z,11.20
2022-11-14T17:35:53.443Z,11.10
2022-11-14T17:38:39.586Z,11.10
2022-11-14T17:41:25.387Z,11.00
2022-11-14T17:44:11.506Z,11.00
2022-11-14T17:46:57.259Z,11.00
2022-11-14T17:49:43.350Z,11.00
2022-11-14T17:52:29.225Z,10.90
2022-11-14T17:55:17.729Z,10.90
2022-11-14T17:58:03.599Z,10.90
2022-11-14T18:00:50.541Z,10.80
2022-11-14T18:03:36.728Z,10.80
2022-11-14T18:06:24.257Z,10.70
2022-11-14T18:09:14.098Z,10.70
2022-11-14T18:12:02.492Z,10.60
2022-11-14T18:14:48.493Z,10.60
2022-11-14T18:17:34.590Z,10.60
2022-11-14T18:20:20.331Z,10.50
2022-11-14T18:23:06.404Z,10.50
2022-11-14T18:25:52.414Z,10.60
2022-11-14T18:28:39.934Z,10.60
2022-11-14T18:31:26.893Z,10.60
2022-11-14T18:34:12.871Z,10.60
2022-11-14T18:36:58.965Z,10.50
2022-11-14T18:39:44.851Z,10.50
2022-11-14T18:42:30.966Z,10.40
2022-11-14T18:45:17.068Z,10.30
2022-11-14T18:48:02.925Z,10.30
2022-11-14T18:50:49.432Z,10.30
2022-11-14T18:53:36.095Z,10.20
2022-11-14T18:56:22.879Z,10.20
2022-11-14T18:59:09.318Z,10.30
2022-11-14T19:01:55.239Z,10.30
2022-11-14T19:04:41.160Z,10.20
2022-11-14T19:07:26.951Z,10.10
2022-11-14T19:10:12.853Z,10.10
2022-11-14T19:12:59.153Z,10.00
2022-11-14T19:15:45.021Z,10.00
2022-11-14T19:18:31.789Z,9.90
2022-11-14T19:21:18.516Z,9.90
2022-11-14T19:24:05.331Z,10.00
2022-11-14T19:26:51.039Z,10.00
2022-11-14T19:29:37.110Z,10.00
2022-11-14T19:32:23.080Z,10.00
2022-11-14T19:35:09.519Z,9.90
2022-11-14T19:37:55.415Z,10.00
2022-11-14T19:40:41.079Z,10.00
2022-11-14T19:43:27.948Z,9.90
2022-11-14T19:46:16.970Z,9.90
2022-11-14T19:49:03.983Z,9.90
2022-11-14T19:51:50.140Z,9.90
2022-11-14T19:54:36.122Z,9.90
2022-11-14T19:57:22.655Z,9.90
2022-11-14T20:00:09.088Z,9.90
2022-11-14T20:02:55.152Z,9.80
2022-11-14T20:05:41.004Z,9.80
2022-11-14T20:08:27.066Z,9.80
2022-11-14T20:11:12.959Z,9.70
2022-11-14T20:13:59.919Z,9.60
2022-11-14T20:16:46.752Z,9.60
2022-11-14T20:19:32.544Z,9.50
2022-11-14T20:22:18.843Z,9.60
2022-11-14T20:25:05.429Z,9.70
2022-11-14T20:27:51.586Z,9.60
2022-11-14T20:30:41.094Z,9.50
2022-11-14T20:33:27.001Z,9.40
2022-11-14T20:36:16.032Z,9.30
2022-11-14T20:39:01.676Z,9.30
2022-11-14T20:41:47.614Z,9.30
2022-11-14T20:44:33.613Z,9.20
2022-11-14T20:47:19.718Z,9.20
2022-11-14T20:50:05.663Z,9.10
2022-11-14T20:52:51.625Z,9.10
2022-11-14T20:55:37.281Z,9.00
2022-11-14T20:58:23.418Z,9.00
2022-11-14T21:01:09.785Z,8.90
2022-11-14T21:03:55.535Z,8.90
2022-11-14T21:06:41.535Z,8.80
2022-11-14T21:09:27.409Z,8.80
2022-11-14T21:12:13.330Z,8.90
2022-11-14T21:14:59.404Z,8.90
2022-11-14T21:17:45.344Z,9.00
2022-11-14T21:20:31.289Z,9.00
2022-11-14T21:23:17.262Z,8.90
2022-11-14T21:26:09.567Z,9.00
2022-11-14T21:28:57.856Z,9.00
2022-11-14T21:31:45.665Z,9.00
2022-11-14T21:34:31.918Z,8.90
2022-11-14T21:37:17.547Z,9.00
2022-11-14T21:40:03.812Z,9.00
2022-11-14T21:42:49.556Z,9.00
2022-11-14T21:45:35.497Z,9.00
2022-11-14T21:48:21.960Z,8.90
2022-11-14T21:51:09.289Z,8.90
2022-11-14T21:54:02.646Z,8.90
2022-11-14T21:56:48.267Z,8.90
2022-11-14T21:59:34.388Z,8.90
2022-11-14T22:02:38.569Z,8.90
2022-11-14T22:05:24.915Z,8.90
2022-11-14T22:08:10.882Z,8.90
2022-11-14T22:11:01.225Z,8.90
2022-11-14T22:13:46.889Z,8.90
2022-11-14T22:16:33.797Z,9.00
2022-11-14T22:19:19.764Z,9.00
2022-11-14T22:22:05.627Z,9.10
2022-11-14T22:24:51.364Z,9.10
2022-11-14T22:27:37.248Z,9.10
2022-11-14T22:30:23.180Z,9.00
2022-11-14T22:33:09.176Z,9.00
2022-11-14T22:35:55.062Z,8.90
2022-11-14T22:38:42.040Z,8.80
2022-11-14T22:41:33.454Z,8.80
2022-11-14T22:44:19.719Z,8.60
2022-11-14T22:47:05.711Z,8.50
2022-11-14T22:49:51.778Z,8.40
2022-11-14T22:52:37.691Z,8.30
2022-11-14T22:55:23.716Z,8.30
2022-11-14T22:58:09.626Z,8.30
2022-11-14T23:00:55.505Z,8.20
2022-11-14T23:03:41.661Z,8.30
2022-11-14T23:06:28.897Z,8.30
2022-11-14T23:09:14.405Z,8.20
2022-11-14T23:12:00.354Z,8.10
2022-11-14T23:14:46.392Z,8.20
2022-11-14T23:17:32.124Z,8.20
2022-11-14T23:20:18.290Z,8.20
2022-11-14T23:23:04.012Z,8.20
2022-11-14T23:25:50.001Z,8.20
2022-11-14T23:28:37.094Z,8.20
2022-11-14T23:31:23.712Z,8.20
2022-11-14T23:34:09.541Z,8.10
2022-11-14T23:36:55.601Z,8.10
2022-11-14T23:39:41.473Z,8.20
2022-11-14T23:42:27.512Z,8.20
2022-11-14T23:45:13.547Z,8.10
2022-11-14T23:47:59.431Z,8.10
2022-11-14T23:50:49.392Z,8.20
2022-11-14T23:53:35.365Z,8.10
2022-11-14T23:56:21.244Z,8.00
2022-11-14T23:59:07.327Z,8.00
